createdAt,value
2023-04-26T00:00:27.381Z,0
2023-04-26T00:01:27.393Z,0
2023-04-26T00:02:27.632Z,0
2023-04-26T00:03:27.496Z,0
2023-04-26T00:04:27.542Z,0
2023-04-26T00:05:27.390Z,0
2023-04-26T00:06:27.562Z,0
2023-04-26T00:07:27.401Z,0
2023-04-26T00:08:27.382Z,0
2023-04-26T00:09:27.400Z,0
2023-04-26T00:10:27.397Z,0
2023-04-26T00:11:27.392Z,0
2023-04-26T00:12:27.397Z,0
2023-04-26T00:13:27.402Z,0
2023-04-26T00:14:27.411Z,0
2023-04-26T00:15:27.390Z,0
2023-04-26T00:16:27.463Z,0
2023-04-26T00:17:27.412Z,0
2023-04-26T00:18:27.410Z,0
2023-04-26T00:19:27.407Z,0
2023-04-26T00:20:27.388Z,0
2023-04-26T00:21:27.404Z,0
2023-04-26T00:22:27.407Z,0
2023-04-26T00:23:27.400Z,0
2023-04-26T00:24:27.415Z,0
2023-04-26T00:25:27.407Z,0
2023-04-26T00:26:27.392Z,0
2023-04-26T00:27:27.387Z,0
2023-04-26T00:28:27.392Z,0
2023-04-26T00:29:27.397Z,0
2023-04-26T00:30:27.402Z,0
2023-04-26T00:31:27.425Z,0
2023-04-26T00:32:27.463Z,0
2023-04-26T00:33:27.393Z,0
2023-04-26T00:34:27.407Z,0
2023-04-26T00:35:27.397Z,0
2023-04-26T00:36:27.434Z,0
2023-04-26T00:37:27.394Z,0
2023-04-26T00:38:27.386Z,0
2023-04-26T00:39:27.418Z,0
2023-04-26T00:40:27.411Z,0
2023-04-26T00:41:27.393Z,0
2023-04-26T00:42:27.395Z,0
2023-04-26T00:43:27.385Z,0
2023-04-26T00:44:27.412Z,0
2023-04-26T00:45:27.452Z,0
2023-04-26T00:46:27.435Z,0
2023-04-26T00:47:27.434Z,0
2023-04-26T00:48:27.399Z,0
2023-04-26T00:49:27.403Z,0
2023-04-26T00:50:27.416Z,0
2023-04-26T00:51:27.405Z,0
2023-04-26T00:52:27.401Z,0
2023-04-26T00:53:27.402Z,0
2023-04-26T00:54:27.409Z,0
2023-04-26T00:55:27.454Z,0
2023-04-26T00:56:27.398Z,0
2023-04-26T00:57:27.414Z,0
2023-04-26T00:58:27.387Z,0
2023-04-26T00:59:27.399Z,0
2023-04-26T01:00:27.395Z,0
2023-04-26T01:01:27.479Z,0
2023-04-26T01:02:27.548Z,0
2023-04-26T01:03:27.554Z,0
2023-04-26T01:04:27.581Z,0
2023-04-26T01:05:27.400Z,0
2023-04-26T01:06:27.420Z,0
2023-04-26T01:07:27.400Z,0
2023-04-26T01:08:27.400Z,0
2023-04-26T01:09:27.398Z,0
2023-04-26T01:10:27.405Z,0
2023-04-26T01:11:27.388Z,0
2023-04-26T01:12:27.386Z,0
2023-04-26T01:13:27.399Z,0
2023-04-26T01:14:27.438Z,0
2023-04-26T01:15:27.401Z,0
2023-04-26T01:16:27.437Z,0
2023-04-26T01:17:27.484Z,0
2023-04-26T01:18:27.399Z,0
2023-04-26T01:19:27.412Z,0
2023-04-26T01:20:27.403Z,0
2023-04-26T01:21:27.396Z,0
2023-04-26T01:22:27.392Z,0
2023-04-26T01:23:27.401Z,0
2023-04-26T01:24:27.400Z,0
2023-04-26T01:25:27.401Z,0
2023-04-26T01:26:27.388Z,0
2023-04-26T01:27:27.410Z,0
2023-04-26T01:28:27.390Z,0
2023-04-26T01:29:27.411Z,0
2023-04-26T01:30:27.386Z,0
2023-04-26T01:31:27.428Z,0
2023-04-26T01:32:27.430Z,0
2023-04-26T01:33:27.388Z,0
2023-04-26T01:34:27.403Z,0
2023-04-26T01:35:27.408Z,0
2023-04-26T01:36:27.405Z,0
2023-04-26T01:37:27.381Z,0
2023-04-26T01:38:27.389Z,0
2023-04-26T01:39:27.406Z,0
2023-04-26T01:40:27.400Z,0
2023-04-26T01:41:27.383Z,0
2023-04-26T01:42:27.399Z,0
2023-04-26T01:43:27.393Z,0
2023-04-26T01:44:27.411Z,0
2023-04-26T01:45:27.396Z,0
2023-04-26T01:46:27.514Z,0
2023-04-26T01:47:27.422Z,0
2023-04-26T01:48:27.399Z,0
2023-04-26T01:49:27.406Z,0
2023-04-26T01:50:27.398Z,0
2023-04-26T01:51:27.414Z,0
2023-04-26T01:52:27.397Z,0
2023-04-26T01:53:27.394Z,0
2023-04-26T01:54:27.405Z,0
2023-04-26T01:55:27.393Z,0
2023-04-26T01:56:27.378Z,0
2023-04-26T01:57:27.374Z,0
2023-04-26T01:58:27.390Z,0
2023-04-26T01:59:27.399Z,0
2023-04-26T02:00:27.374Z,0
2023-04-26T02:01:27.494Z,0
2023-04-26T02:02:27.453Z,0
2023-04-26T02:03:27.405Z,0
2023-04-26T02:04:27.414Z,0
2023-04-26T02:05:27.432Z,0
2023-04-26T02:06:27.402Z,0
2023-04-26T02:07:27.400Z,0
2023-04-26T02:08:27.377Z,0
2023-04-26T02:09:27.393Z,0
2023-04-26T02:10:27.387Z,0
2023-04-26T02:11:27.385Z,0
2023-04-26T02:12:27.391Z,0
2023-04-26T02:13:27.379Z,0
2023-04-26T02:14:27.406Z,0
2023-04-26T02:15:27.421Z,0
2023-04-26T02:16:27.517Z,0
2023-04-26T02:17:27.446Z,0
2023-04-26T02:18:27.388Z,0
2023-04-26T02:19:27.417Z,0
2023-04-26T02:20:27.394Z,0
2023-04-26T02:21:27.417Z,0
2023-04-26T02:22:27.396Z,0
2023-04-26T02:23:27.386Z,0
2023-04-26T02:24:27.404Z,0
2023-04-26T02:25:27.417Z,0
2023-04-26T02:26:27.398Z,0
2023-04-26T02:27:27.388Z,0
2023-04-26T02:28:27.397Z,0
2023-04-26T02:29:43.019Z,0
2023-04-26T02:30:27.385Z,0
2023-04-26T02:31:27.417Z,0
2023-04-26T02:32:27.455Z,0
2023-04-26T02:33:27.396Z,0
2023-04-26T02:34:27.417Z,0
2023-04-26T02:35:27.421Z,0
2023-04-26T02:36:27.403Z,0
2023-04-26T02:37:27.455Z,0
2023-04-26T02:38:27.403Z,0
2023-04-26T02:39:27.400Z,0
2023-04-26T02:40:27.395Z,0
2023-04-26T02:41:27.392Z,0
2023-04-26T02:42:27.391Z,0
2023-04-26T02:43:27.404Z,0
2023-04-26T02:44:27.404Z,0
2023-04-26T02:45:27.398Z,0
2023-04-26T02:46:27.416Z,0
2023-04-26T02:47:27.406Z,0
2023-04-26T02:48:27.399Z,0
2023-04-26T02:49:27.394Z,0
2023-04-26T02:50:27.388Z,0
2023-04-26T02:51:27.413Z,0
2023-04-26T02:52:27.383Z,0
2023-04-26T02:53:27.394Z,0
2023-04-26T02:54:27.398Z,0
2023-04-26T02:55:27.406Z,0
2023-04-26T02:56:27.388Z,0
2023-04-26T02:57:27.388Z,0
2023-04-26T02:58:27.393Z,0
2023-04-26T02:59:27.396Z,0
2023-04-26T03:00:27.381Z,0
2023-04-26T03:01:27.421Z,0
2023-04-26T03:02:27.547Z,0
2023-04-26T03:03:27.664Z,0
2023-04-26T03:04:27.435Z,0
2023-04-26T03:05:27.399Z,0
2023-04-26T03:06:27.413Z,0
2023-04-26T03:07:27.382Z,0
2023-04-26T03:08:27.377Z,0
2023-04-26T03:09:27.398Z,0
2023-04-26T03:10:27.402Z,0
2023-04-26T03:11:27.523Z,0
2023-04-26T03:12:27.384Z,0
2023-04-26T03:13:27.393Z,0
2023-04-26T03:14:27.406Z,0
2023-04-26T03:15:27.386Z,0
2023-04-26T03:16:27.518Z,0
2023-04-26T03:17:27.409Z,0
2023-04-26T03:18:27.396Z,0
2023-04-26T03:19:27.437Z,0
2023-04-26T03:20:27.389Z,0
2023-04-26T03:21:27.408Z,0
2023-04-26T03:22:27.397Z,0
2023-04-26T03:23:27.391Z,0
2023-04-26T03:24:27.445Z,0
2023-04-26T03:25:27.388Z,0
2023-04-26T03:26:27.394Z,0
2023-04-26T03:27:27.389Z,0
2023-04-26T03:28:27.381Z,0
2023-04-26T03:29:27.398Z,0
2023-04-26T03:30:27.395Z,0
2023-04-26T03:31:27.429Z,0
2023-04-26T03:32:27.426Z,0
2023-04-26T03:33:27.392Z,0
2023-04-26T03:34:27.480Z,0.01
2023-04-26T03:35:27.386Z,0.01
2023-04-26T03:36:27.417Z,0.01
2023-04-26T03:37:27.396Z,0.01
2023-04-26T03:38:27.388Z,0.01
2023-04-26T03:39:27.413Z,0.01
2023-04-26T03:40:27.388Z,0.02
2023-04-26T03:41:27.401Z,0.02
2023-04-26T03:42:27.402Z,0.02
2023-04-26T03:43:27.393Z,0.02
2023-04-26T03:44:28.336Z,0.02
2023-04-26T03:45:27.397Z,0.03
2023-04-26T03:46:27.435Z,0.03
2023-04-26T03:47:27.420Z,0.03
2023-04-26T03:48:27.421Z,0.04
2023-04-26T03:49:27.400Z,0.04
2023-04-26T03:50:27.408Z,0.04
2023-04-26T03:51:27.420Z,0.05
2023-04-26T03:52:27.394Z,0.05
2023-04-26T03:53:27.399Z,0.06
2023-04-26T03:54:27.409Z,0.06
2023-04-26T03:55:27.399Z,0.07
2023-04-26T03:56:27.400Z,0.07
2023-04-26T03:57:27.395Z,0.08
2023-04-26T03:58:27.397Z,0.08
2023-04-26T03:59:27.403Z,0.09
2023-04-26T04:00:27.395Z,0.09
2023-04-26T04:01:27.391Z,0.09
2023-04-26T04:02:27.507Z,0.09
2023-04-26T04:03:27.510Z,0.1
2023-04-26T04:04:27.740Z,0.1
2023-04-26T04:05:27.412Z,0.1
2023-04-26T04:06:27.400Z,0.1
2023-04-26T04:07:27.393Z,0.1
2023-04-26T04:08:27.385Z,0.1
2023-04-26T04:09:27.399Z,0.11
2023-04-26T04:10:27.389Z,0.12
2023-04-26T04:11:27.388Z,0.13
2023-04-26T04:12:27.397Z,0.13
2023-04-26T04:13:27.389Z,0.14
2023-04-26T04:14:27.422Z,0.14
2023-04-26T04:15:27.401Z,0.14
2023-04-26T04:16:27.501Z,0.16
2023-04-26T04:17:27.419Z,0.17
2023-04-26T04:18:27.398Z,0.17
2023-04-26T04:19:27.406Z,0.19
2023-04-26T04:20:27.380Z,0.2
2023-04-26T04:21:27.403Z,0.2
2023-04-26T04:22:27.393Z,0.2
2023-04-26T04:23:27.388Z,0.22
2023-04-26T04:24:27.422Z,0.23
2023-04-26T04:25:27.389Z,0.24
2023-04-26T04:26:27.401Z,0.24
2023-04-26T04:27:27.400Z,0.24
2023-04-26T04:28:27.394Z,0.24
2023-04-26T04:29:27.410Z,0.22
2023-04-26T04:30:27.383Z,0.22
2023-04-26T04:31:27.417Z,0.23
2023-04-26T04:32:27.435Z,0.23
2023-04-26T04:33:27.415Z,0.23
2023-04-26T04:34:27.409Z,0.22
2023-04-26T04:35:27.405Z,0.21
2023-04-26T04:36:27.418Z,0.21
2023-04-26T04:37:27.395Z,0.24
2023-04-26T04:38:27.381Z,0.27
2023-04-26T04:39:27.405Z,0.28
2023-04-26T04:40:27.378Z,0.31
2023-04-26T04:41:27.387Z,0.31
2023-04-26T04:42:27.387Z,0.34
2023-04-26T04:43:27.387Z,0.37
2023-04-26T04:44:27.393Z,0.37
2023-04-26T04:45:27.377Z,0.37
2023-04-26T04:46:27.467Z,0.37
2023-04-26T04:47:27.423Z,0.39
2023-04-26T04:48:27.402Z,0.39
2023-04-26T04:49:27.395Z,0.42
2023-04-26T04:50:27.392Z,0.44
2023-04-26T04:51:27.406Z,0.46
2023-04-26T04:52:27.399Z,0.44
2023-04-26T04:53:27.397Z,0.46
2023-04-26T04:54:27.410Z,0.5
2023-04-26T04:55:27.386Z,0.47
2023-04-26T04:56:27.393Z,0.47
2023-04-26T04:57:27.395Z,0.45
2023-04-26T04:58:27.396Z,0.41
2023-04-26T04:59:28.029Z,0.41
2023-04-26T05:00:27.375Z,0.44
2023-04-26T05:01:27.457Z,0.49
2023-04-26T05:02:27.533Z,0.44
2023-04-26T05:03:27.553Z,0.46
2023-04-26T05:04:27.670Z,0.5
2023-04-26T05:05:27.385Z,0.47
2023-04-26T05:06:27.413Z,0.47
2023-04-26T05:07:29.016Z,0.45
2023-04-26T05:08:27.394Z,0.44
2023-04-26T05:09:27.391Z,0.45
2023-04-26T05:10:27.395Z,0.49
2023-04-26T05:11:27.395Z,0.54
2023-04-26T05:12:27.398Z,0.63
2023-04-26T05:13:27.390Z,0.67
2023-04-26T05:14:27.417Z,0.54
2023-04-26T05:15:27.388Z,0.52
2023-04-26T05:16:27.428Z,0.54
2023-04-26T05:17:27.408Z,0.55
2023-04-26T05:18:27.398Z,0.62
2023-04-26T05:19:27.403Z,0.58
2023-04-26T05:20:27.377Z,0.58
2023-04-26T05:21:27.408Z,0.49
2023-04-26T05:22:27.400Z,0.48
2023-04-26T05:23:27.390Z,0.5
2023-04-26T05:24:27.406Z,0.53
2023-04-26T05:25:27.401Z,0.51
2023-04-26T05:26:27.396Z,0.45
2023-04-26T05:27:27.399Z,0.4
2023-04-26T05:28:27.392Z,0.41
2023-04-26T05:29:27.402Z,0.48
2023-04-26T05:30:27.384Z,0.46
2023-04-26T05:31:27.422Z,0.49
2023-04-26T05:32:27.406Z,0.63
2023-04-26T05:33:27.390Z,0.77
2023-04-26T05:34:27.408Z,0.68
2023-04-26T05:35:27.393Z,0.77
2023-04-26T05:36:29.137Z,0.9
2023-04-26T05:37:27.400Z,0.86
2023-04-26T05:38:27.390Z,0.79
2023-04-26T05:39:27.395Z,0.85
2023-04-26T05:40:27.402Z,0.92
2023-04-26T05:41:27.410Z,0.87
2023-04-26T05:42:27.385Z,1.01
2023-04-26T05:43:27.424Z,1.05
2023-04-26T05:44:27.412Z,0.98
2023-04-26T05:45:27.432Z,0.98
2023-04-26T05:46:27.560Z,0.86
2023-04-26T05:47:27.444Z,0.88
2023-04-26T05:48:27.403Z,0.94
2023-04-26T05:49:27.397Z,1.1
2023-04-26T05:50:27.391Z,1.05
2023-04-26T05:51:27.413Z,0.99
2023-04-26T05:52:27.388Z,1
2023-04-26T05:53:27.395Z,1.06
2023-04-26T05:54:27.404Z,1.09
2023-04-26T05:55:27.397Z,1.15
2023-04-26T05:56:27.398Z,1.14
2023-04-26T05:57:27.398Z,1.06
2023-04-26T05:58:27.398Z,1.08
2023-04-26T05:59:27.402Z,1.06
2023-04-26T06:00:27.388Z,1.04
2023-04-26T06:01:27.388Z,0.97
2023-04-26T06:02:27.500Z,0.98
2023-04-26T06:03:27.719Z,1.13
2023-04-26T06:04:27.677Z,1.13
2023-04-26T06:05:27.464Z,1.1
2023-04-26T06:06:27.410Z,0.96
2023-04-26T06:07:27.387Z,0.87
2023-04-26T06:08:27.390Z,0.81
2023-04-26T06:09:27.416Z,0.82
2023-04-26T06:10:27.379Z,0.95
2023-04-26T06:11:27.385Z,1.03
2023-04-26T06:12:27.382Z,1.16
2023-04-26T06:13:27.384Z,1.34
2023-04-26T06:14:30.683Z,1.15
2023-04-26T06:15:27.390Z,0.94
2023-04-26T06:16:27.421Z,0.83
2023-04-26T06:17:27.395Z,0.79
2023-04-26T06:18:27.385Z,0.78
2023-04-26T06:19:27.402Z,0.85
2023-04-26T06:20:27.386Z,0.84
2023-04-26T06:21:27.414Z,0.89
2023-04-26T06:22:27.397Z,1.09
2023-04-26T06:23:27.399Z,1.12
2023-04-26T06:24:27.401Z,0.98
2023-04-26T06:25:27.393Z,0.94
2023-04-26T06:26:27.404Z,1.01
2023-04-26T06:27:27.394Z,1.29
2023-04-26T06:28:27.417Z,1.38
2023-04-26T06:29:27.412Z,1.4
2023-04-26T06:30:27.452Z,1.42
2023-04-26T06:31:27.428Z,1.27
2023-04-26T06:32:27.428Z,1.19
2023-04-26T06:33:27.393Z,1.18
2023-04-26T06:34:27.402Z,1.11
2023-04-26T06:35:27.389Z,1.05
2023-04-26T06:36:27.409Z,1.17
2023-04-26T06:37:27.394Z,1.11
2023-04-26T06:38:27.433Z,1.22
2023-04-26T06:39:27.405Z,0.93
2023-04-26T06:40:27.436Z,1.06
2023-04-26T06:41:27.400Z,1.23
2023-04-26T06:42:27.397Z,1.31
2023-04-26T06:43:27.385Z,1.72
2023-04-26T06:44:27.410Z,1.06
2023-04-26T06:45:27.394Z,1.06
2023-04-26T06:46:27.482Z,1.04
2023-04-26T06:47:27.445Z,0.97
2023-04-26T06:48:27.389Z,1.01
2023-04-26T06:49:27.402Z,1.54
2023-04-26T06:50:27.407Z,1.88
2023-04-26T06:51:27.414Z,1.89
2023-04-26T06:52:27.569Z,1.85
2023-04-26T06:53:27.388Z,1.73
2023-04-26T06:54:27.407Z,1.62
2023-04-26T06:55:27.394Z,2.32
2023-04-26T06:56:27.396Z,4.63
2023-04-26T06:57:27.390Z,2.71
2023-04-26T06:58:27.404Z,1.74
2023-04-26T06:59:27.407Z,1.74
2023-04-26T07:00:27.400Z,4.82
2023-04-26T07:01:27.412Z,4.16
2023-04-26T07:02:27.537Z,1.42
2023-04-26T07:03:27.552Z,1.44
2023-04-26T07:04:27.643Z,1.66
2023-04-26T07:05:27.389Z,1.9
2023-04-26T07:06:27.414Z,5.49
2023-04-26T07:07:27.426Z,2.21
2023-04-26T07:08:27.393Z,1.77
2023-04-26T07:09:27.413Z,1.96
2023-04-26T07:10:27.799Z,2.84
2023-04-26T07:11:27.389Z,2.01
2023-04-26T07:12:27.671Z,1.88
2023-04-26T07:13:27.395Z,5.28
2023-04-26T07:14:27.611Z,4.85
2023-04-26T07:15:27.399Z,2.84
2023-04-26T07:16:27.491Z,1.59
2023-04-26T07:17:27.399Z,1.29
2023-04-26T07:18:27.403Z,1.27
2023-04-26T07:19:27.399Z,1.63
2023-04-26T07:20:27.397Z,5.23
2023-04-26T07:21:27.438Z,3.47
2023-04-26T07:22:27.393Z,6.85
2023-04-26T07:23:27.394Z,1.94
2023-04-26T07:24:27.436Z,5.25
2023-04-26T07:25:27.402Z,1.79
2023-04-26T07:26:27.401Z,6.07
2023-04-26T07:27:27.400Z,7.23
2023-04-26T07:28:27.401Z,3.01
2023-04-26T07:29:27.403Z,2.52
2023-04-26T07:30:27.396Z,4.03
2023-04-26T07:31:27.404Z,2.18
2023-04-26T07:32:27.517Z,1.76
2023-04-26T07:33:27.596Z,6.15
2023-04-26T07:34:27.410Z,1.56
2023-04-26T07:35:27.398Z,1.06
2023-04-26T07:36:27.521Z,0.95
2023-04-26T07:37:27.395Z,0.94
2023-04-26T07:38:27.390Z,0.95
2023-04-26T07:39:27.395Z,1.02
2023-04-26T07:40:27.379Z,1.07
2023-04-26T07:41:27.395Z,1.09
2023-04-26T07:42:27.408Z,1.25
2023-04-26T07:43:27.398Z,1.7
2023-04-26T07:44:27.410Z,7.33
2023-04-26T07:45:27.416Z,7.33
2023-04-26T07:46:27.446Z,1.76
2023-04-26T07:47:27.445Z,7.94
2023-04-26T07:48:27.395Z,2.43
2023-04-26T07:49:27.403Z,6.83
2023-04-26T07:50:27.386Z,2.68
2023-04-26T07:51:27.480Z,7.25
2023-04-26T07:52:27.403Z,8.05
2023-04-26T07:53:27.394Z,8.24
2023-04-26T07:54:27.401Z,8.17
2023-04-26T07:55:27.393Z,8.06
2023-04-26T07:56:27.393Z,7.71
2023-04-26T07:57:27.384Z,6.55
2023-04-26T07:58:27.395Z,6.83
2023-04-26T07:59:27.398Z,7.96
2023-04-26T08:00:27.396Z,5.29
2023-04-26T08:01:27.393Z,1.79
2023-04-26T08:02:43.548Z,1.79
2023-04-26T08:03:27.708Z,1.7
2023-04-26T08:04:27.473Z,1.59
2023-04-26T08:05:27.810Z,1.76
2023-04-26T08:06:27.474Z,1.98
2023-04-26T08:07:27.402Z,4.43
2023-04-26T08:08:27.395Z,6.52
2023-04-26T08:09:27.407Z,8
2023-04-26T08:10:27.382Z,8.54
2023-04-26T08:11:27.489Z,3.01
2023-04-26T08:12:27.388Z,1.75
2023-04-26T08:13:29.306Z,1.53
2023-04-26T08:14:27.425Z,1.51
2023-04-26T08:15:27.398Z,1.72
2023-04-26T08:16:27.605Z,2.21
2023-04-26T08:17:27.524Z,5.39
2023-04-26T08:18:27.387Z,4.25
2023-04-26T08:19:27.400Z,8.3
2023-04-26T08:20:27.381Z,8.76
2023-04-26T08:21:27.416Z,8.92
2023-04-26T08:22:27.403Z,2.43
2023-04-26T08:23:27.396Z,9.92
2023-04-26T08:24:27.407Z,9.67
2023-04-26T08:25:27.408Z,9.69
2023-04-26T08:26:27.392Z,8.43
2023-04-26T08:27:27.381Z,6.51
2023-04-26T08:28:27.381Z,6.48
2023-04-26T08:29:27.394Z,8.47
2023-04-26T08:30:27.397Z,6.52
2023-04-26T08:31:27.447Z,8.04
2023-04-26T08:32:27.438Z,2.08
2023-04-26T08:33:27.410Z,1.88
2023-04-26T08:34:27.395Z,1.83
2023-04-26T08:35:27.386Z,1.81
2023-04-26T08:36:27.408Z,1.86
2023-04-26T08:37:28.763Z,2.04
2023-04-26T08:38:27.394Z,2.47
2023-04-26T08:39:27.459Z,5.55
2023-04-26T08:40:27.401Z,9.76
2023-04-26T08:41:27.399Z,8.64
2023-04-26T08:42:27.391Z,9.76
2023-04-26T08:43:27.428Z,9.74
2023-04-26T08:44:27.408Z,8.92
2023-04-26T08:45:27.400Z,8.92
2023-04-26T08:46:27.468Z,2.93
2023-04-26T08:47:27.439Z,2.78
2023-04-26T08:48:27.390Z,2.67
2023-04-26T08:49:27.398Z,2.44
2023-04-26T08:50:27.398Z,2.12
2023-04-26T08:51:27.426Z,2
2023-04-26T08:52:27.387Z,2.09
2023-04-26T08:53:27.402Z,2.16
2023-04-26T08:54:27.414Z,3.77
2023-04-26T08:55:27.421Z,8.5
2023-04-26T08:56:27.399Z,9.42
2023-04-26T08:57:27.394Z,9.42
2023-04-26T08:58:27.397Z,7.48
2023-04-26T08:59:27.406Z,2.76
2023-04-26T09:00:27.408Z,2.34
2023-04-26T09:01:27.435Z,2.52
2023-04-26T09:02:27.583Z,5.7
2023-04-26T09:03:27.603Z,10.56
2023-04-26T09:04:27.705Z,9.45
2023-04-26T09:05:27.489Z,7.18
2023-04-26T09:06:27.415Z,8.86
2023-04-26T09:07:27.415Z,11.86
2023-04-26T09:08:27.398Z,5.67
2023-04-26T09:09:29.475Z,10.09
2023-04-26T09:10:27.382Z,7.03
2023-04-26T09:11:27.385Z,7.4
2023-04-26T09:12:27.394Z,10.62
2023-04-26T09:13:27.397Z,12.75
2023-04-26T09:14:27.418Z,11.89
2023-04-26T09:15:27.421Z,10.66
2023-04-26T09:16:27.449Z,10.67
2023-04-26T09:17:27.438Z,2.69
2023-04-26T09:18:27.412Z,2.43
2023-04-26T09:19:27.405Z,2.24
2023-04-26T09:20:27.392Z,2.04
2023-04-26T09:21:27.402Z,1.84
2023-04-26T09:22:27.390Z,1.75
2023-04-26T09:23:27.382Z,1.82
2023-04-26T09:24:27.404Z,2.01
2023-04-26T09:25:27.401Z,2.47
2023-04-26T09:26:27.397Z,3.4
2023-04-26T09:27:27.391Z,2.34
2023-04-26T09:28:27.385Z,2.01
2023-04-26T09:29:27.397Z,1.75
2023-04-26T09:30:27.387Z,1.71
2023-04-26T09:31:27.450Z,1.8
2023-04-26T09:32:27.389Z,2.22
2023-04-26T09:33:27.386Z,2.27
2023-04-26T09:34:27.402Z,1.92
2023-04-26T09:35:27.403Z,2.1
2023-04-26T09:36:27.406Z,2.47
2023-04-26T09:37:27.390Z,3.14
2023-04-26T09:38:27.395Z,2.79
2023-04-26T09:39:27.404Z,5.4
2023-04-26T09:40:27.378Z,10.36
2023-04-26T09:41:27.393Z,8.71
2023-04-26T09:42:27.391Z,3.04
2023-04-26T09:43:27.390Z,3.56
2023-04-26T09:44:27.417Z,7.59
2023-04-26T09:45:27.402Z,7.59
2023-04-26T09:46:27.441Z,3.57
2023-04-26T09:47:27.414Z,9.43
2023-04-26T09:48:27.387Z,8.53
2023-04-26T09:49:27.401Z,9.39
2023-04-26T09:50:27.390Z,10.93
2023-04-26T09:51:27.413Z,11.33
2023-04-26T09:52:27.404Z,5.09
2023-04-26T09:53:27.436Z,4.3
2023-04-26T09:54:27.401Z,4.4
2023-04-26T09:55:35.066Z,4.65
2023-04-26T09:56:27.392Z,4.57
2023-04-26T09:57:27.393Z,4.77
2023-04-26T09:58:27.384Z,5.35
2023-04-26T09:59:27.394Z,4.92
2023-04-26T10:00:27.394Z,3.21
2023-04-26T10:01:27.416Z,3.17
2023-04-26T10:02:27.573Z,2.92
2023-04-26T10:03:27.568Z,3.39
2023-04-26T10:04:27.443Z,2.56
2023-04-26T10:05:27.383Z,2.51
2023-04-26T10:06:27.448Z,2.62
2023-04-26T10:07:27.400Z,2.88
2023-04-26T10:08:27.396Z,3.37
2023-04-26T10:09:27.398Z,3.24
2023-04-26T10:10:27.396Z,3.32
2023-04-26T10:11:27.396Z,2.73
2023-04-26T10:12:27.391Z,10.31
2023-04-26T10:13:27.383Z,12.47
2023-04-26T10:14:27.398Z,12.29
2023-04-26T10:15:27.388Z,12.23
2023-04-26T10:16:27.451Z,11.38
2023-04-26T10:17:27.424Z,10.05
2023-04-26T10:18:27.394Z,9.04
2023-04-26T10:19:27.402Z,8.78
2023-04-26T10:20:27.392Z,9.56
2023-04-26T10:21:27.407Z,11.52
2023-04-26T10:22:27.396Z,13.49
2023-04-26T10:23:27.390Z,14.34
2023-04-26T10:24:27.402Z,3.35
2023-04-26T10:25:27.381Z,2.84
2023-04-26T10:26:27.394Z,2.63
2023-04-26T10:27:27.398Z,2.28
2023-04-26T10:28:27.382Z,2.05
2023-04-26T10:29:27.400Z,1.87
2023-04-26T10:30:27.381Z,1.79
2023-04-26T10:31:27.399Z,1.76
2023-04-26T10:32:27.387Z,1.72
2023-04-26T10:33:27.396Z,1.68
2023-04-26T10:34:27.402Z,1.63
2023-04-26T10:35:27.391Z,1.63
2023-04-26T10:36:27.397Z,1.63
2023-04-26T10:37:27.396Z,1.66
2023-04-26T10:38:27.399Z,1.7
2023-04-26T10:39:27.393Z,1.74
2023-04-26T10:40:27.400Z,1.8
2023-04-26T10:41:27.391Z,1.87
2023-04-26T10:42:27.809Z,1.97
2023-04-26T10:43:27.430Z,2.11
2023-04-26T10:44:27.423Z,2.25
2023-04-26T10:45:27.398Z,2.25
2023-04-26T10:46:27.429Z,2.51
2023-04-26T10:47:27.456Z,2.68
2023-04-26T10:48:27.395Z,2.88
2023-04-26T10:49:27.396Z,3.4
2023-04-26T10:50:27.384Z,5.09
2023-04-26T10:51:27.408Z,11.76
2023-04-26T10:52:27.395Z,14.55
2023-04-26T10:53:27.392Z,13.64
2023-04-26T10:54:27.404Z,12.85
2023-04-26T10:55:27.399Z,12.09
2023-04-26T10:56:27.404Z,5.01
2023-04-26T10:57:27.398Z,5.05
2023-04-26T10:58:27.383Z,4.32
2023-04-26T10:59:39.877Z,3.62
2023-04-26T11:00:29.210Z,3.19
2023-04-26T11:01:27.425Z,2.87
2023-04-26T11:02:27.442Z,2.66
2023-04-26T11:03:27.572Z,2.56
2023-04-26T11:04:27.590Z,2.51
2023-04-26T11:05:27.398Z,2.51
2023-04-26T11:06:27.408Z,2.52
2023-04-26T11:07:27.396Z,2.55
2023-04-26T11:08:27.400Z,2.58
2023-04-26T11:09:27.403Z,2.63
2023-04-26T11:10:27.391Z,2.68
2023-04-26T11:11:27.388Z,2.38
2023-04-26T11:12:27.394Z,2.09
2023-04-26T11:13:27.389Z,1.84
2023-04-26T11:14:27.404Z,1.66
2023-04-26T11:15:27.388Z,1.59
2023-04-26T11:16:27.434Z,1.6
2023-04-26T11:17:27.405Z,1.65
2023-04-26T11:18:27.397Z,1.76
2023-04-26T11:19:27.406Z,2.01
2023-04-26T11:20:27.387Z,7.38
2023-04-26T11:21:27.413Z,3.71
2023-04-26T11:22:27.391Z,7.89
2023-04-26T11:23:27.399Z,9.3
2023-04-26T11:24:27.408Z,8.87
2023-04-26T11:25:27.403Z,8.48
2023-04-26T11:26:27.401Z,3.49
2023-04-26T11:27:27.387Z,4.47
2023-04-26T11:28:27.399Z,3.49
2023-04-26T11:29:27.403Z,3.93
2023-04-26T11:30:27.387Z,4.08
2023-04-26T11:31:27.468Z,4.08
2023-04-26T11:32:27.440Z,4.38
2023-04-26T11:33:27.390Z,5.83
2023-04-26T11:34:27.396Z,5.4
2023-04-26T11:35:27.403Z,12.35
2023-04-26T11:36:27.440Z,12.48
2023-04-26T11:37:27.392Z,12.58
2023-04-26T11:38:27.418Z,12.22
2023-04-26T11:39:27.392Z,12.32
2023-04-26T11:40:27.387Z,12.2
2023-04-26T11:41:27.394Z,12.17
2023-04-26T11:42:27.407Z,12.32
2023-04-26T11:43:27.424Z,12.15
2023-04-26T11:44:27.398Z,11.09
2023-04-26T11:45:27.401Z,11.09
2023-04-26T11:46:27.433Z,8.92
2023-04-26T11:47:27.401Z,2.67
2023-04-26T11:48:27.399Z,2.11
2023-04-26T11:49:27.397Z,2.15
2023-04-26T11:50:27.389Z,2.13
2023-04-26T11:51:27.409Z,1.99
2023-04-26T11:52:27.411Z,1.86
2023-04-26T11:53:27.390Z,1.74
2023-04-26T11:54:27.404Z,1.75
2023-04-26T11:55:27.405Z,1.87
2023-04-26T11:56:27.389Z,2.07
2023-04-26T11:57:27.403Z,2.44
2023-04-26T11:58:27.428Z,9.32
2023-04-26T11:59:27.409Z,8.61
2023-04-26T12:00:27.396Z,10.76
2023-04-26T12:01:27.400Z,10.9
2023-04-26T12:02:27.493Z,10.43
2023-04-26T12:03:27.518Z,6.04
2023-04-26T12:04:29.806Z,5.56
2023-04-26T12:05:27.574Z,4.77
2023-04-26T12:06:27.419Z,11.43
2023-04-26T12:07:27.395Z,11.74
2023-04-26T12:08:27.415Z,11.16
2023-04-26T12:09:27.418Z,11.03
2023-04-26T12:10:27.383Z,7.26
2023-04-26T12:11:27.404Z,5.03
2023-04-26T12:12:27.394Z,9.2
2023-04-26T12:13:27.388Z,3.37
2023-04-26T12:14:27.417Z,2.56
2023-04-26T12:15:27.400Z,2.13
2023-04-26T12:16:27.588Z,1.82
2023-04-26T12:17:27.474Z,1.61
2023-04-26T12:18:27.501Z,1.43
2023-04-26T12:19:27.409Z,1.28
2023-04-26T12:20:27.392Z,1.15
2023-04-26T12:21:30.364Z,1.06
2023-04-26T12:22:27.418Z,0.99
2023-04-26T12:23:27.401Z,0.95
2023-04-26T12:24:27.399Z,0.95
2023-04-26T12:25:27.394Z,0.98
2023-04-26T12:26:27.394Z,1.02
2023-04-26T12:27:27.414Z,1.08
2023-04-26T12:28:27.399Z,1.17
2023-04-26T12:29:27.399Z,1.29
2023-04-26T12:30:27.384Z,1.43
2023-04-26T12:31:27.405Z,1.61
2023-04-26T12:32:27.405Z,1.81
2023-04-26T12:33:27.422Z,2.08
2023-04-26T12:34:27.397Z,2.49
2023-04-26T12:35:27.391Z,3.75
2023-04-26T12:36:27.414Z,4.3
2023-04-26T12:37:27.397Z,9.63
2023-04-26T12:38:27.394Z,5.33
2023-04-26T12:39:27.400Z,8.8
2023-04-26T12:40:27.400Z,8.98
2023-04-26T12:41:27.394Z,9.08
2023-04-26T12:42:27.403Z,8.6
2023-04-26T12:43:27.402Z,8.51
2023-04-26T12:44:27.398Z,10.11
2023-04-26T12:45:32.813Z,10.11
2023-04-26T12:46:31.817Z,9.63
2023-04-26T12:47:31.818Z,8.46
2023-04-26T12:48:31.738Z,9.23
2023-04-26T12:49:31.751Z,7.31
2023-04-26T12:50:31.737Z,7.07
2023-04-26T12:51:31.749Z,4.11
2023-04-26T12:52:31.739Z,4.06
2023-04-26T12:53:31.756Z,3.49
2023-04-26T12:54:31.750Z,2.92
2023-04-26T12:55:33.017Z,2.62
2023-04-26T12:56:31.741Z,2.36
2023-04-26T12:57:31.753Z,2.2
2023-04-26T12:58:31.739Z,2.12
2023-04-26T12:59:31.740Z,2.06
2023-04-26T13:00:31.745Z,1.99
2023-04-26T13:01:31.789Z,1.93
2023-04-26T13:02:31.930Z,1.85
2023-04-26T13:03:31.894Z,1.78
2023-04-26T13:04:32.167Z,1.73
2023-04-26T13:05:31.741Z,1.67
2023-04-26T13:06:31.750Z,1.68
2023-04-26T13:07:31.736Z,1.88
2023-04-26T13:08:31.740Z,8.94
2023-04-26T13:09:31.731Z,4.85
2023-04-26T13:10:31.726Z,5.95
2023-04-26T13:11:31.744Z,2.77
2023-04-26T13:12:31.786Z,2.3
2023-04-26T13:13:42.302Z,2.07
2023-04-26T13:14:31.745Z,1.89
2023-04-26T13:15:31.725Z,1.75
2023-04-26T13:16:31.773Z,1.61
2023-04-26T13:17:31.748Z,1.49
2023-04-26T13:18:31.731Z,1.37
2023-04-26T13:19:31.734Z,1.27
2023-04-26T13:20:31.736Z,1.18
2023-04-26T13:21:31.753Z,1.11
2023-04-26T13:22:31.741Z,1.05
2023-04-26T13:23:31.735Z,0.99
2023-04-26T13:24:31.742Z,0.96
2023-04-26T13:25:31.759Z,0.96
2023-04-26T13:26:31.733Z,0.98
2023-04-26T13:27:31.943Z,1.02
2023-04-26T13:28:31.740Z,1.13
2023-04-26T13:29:31.743Z,1.25
2023-04-26T13:30:31.746Z,1.47
2023-04-26T13:31:31.745Z,2.39
2023-04-26T13:32:31.819Z,6.98
2023-04-26T13:33:31.733Z,7.83
2023-04-26T13:34:31.737Z,8.85
2023-04-26T13:35:31.737Z,8.04
2023-04-26T13:36:31.749Z,4.36
2023-04-26T13:37:31.734Z,2.53
2023-04-26T13:38:32.850Z,2.31
2023-04-26T13:39:31.751Z,2.15
2023-04-26T13:40:31.741Z,1.97